createdAt,value
2022-09-05T00:03:15.751Z,18.30
2022-09-05T00:06:18.109Z,18.20
2022-09-05T00:09:42.840Z,18.30
2022-09-05T00:12:46.409Z,18.20
2022-09-05T00:16:01.587Z,18.20
2022-09-05T00:24:21.739Z,18.10
2022-09-05T00:24:37.402Z,18.20
2022-09-05T00:26:49.963Z,18.20
2022-09-05T00:31:05.853Z,18.20
2022-09-05T00:33:48.439Z,18.10
2022-09-05T00:36:55.649Z,18.10
2022-09-05T00:40:18.733Z,18.00
2022-09-05T00:43:29.349Z,17.90
2022-09-05T00:46:38.672Z,17.90
2022-09-05T00:49:49.974Z,18.00
2022-09-05T00:53:07.555Z,17.90
2022-09-05T00:56:21.787Z,17.80
2022-09-05T00:59:58.694Z,17.70
2022-09-05T01:03:29.715Z,17.70
2022-09-05T01:06:56.293Z,17.60
2022-09-05T01:10:03.470Z,17.70
2022-09-05T01:13:34.351Z,17.60
2022-09-05T01:17:04.795Z,17.60
2022-09-05T01:20:19.905Z,17.50
2022-09-05T01:23:40.393Z,17.50
2022-09-05T01:27:00.436Z,17.40
2022-09-05T01:30:32.138Z,17.40
2022-09-05T01:33:57.170Z,17.30
2022-09-05T01:37:24.918Z,17.30
2022-09-05T01:40:41.526Z,17.20
2022-09-05T01:44:01.618Z,17.20
2022-09-05T01:47:36.668Z,17.20
2022-09-05T01:50:59.746Z,17.20
2022-09-05T01:54:36.167Z,17.20
2022-09-05T01:58:05.760Z,17.10
2022-09-05T02:01:32.116Z,17.10
2022-09-05T02:04:57.639Z,17.10
2022-09-05T02:08:09.558Z,17.00
2022-09-05T02:11:13.038Z,16.90
2022-09-05T02:15:00.005Z,16.90
2022-09-05T02:18:10.569Z,16.90
2022-09-05T02:21:23.681Z,17.00
2022-09-05T02:24:37.529Z,16.90
2022-09-05T02:28:05.522Z,16.90
2022-09-05T02:31:32.033Z,16.70
2022-09-05T02:34:55.901Z,16.80
2022-09-05T02:39:24.033Z,16.70
2022-09-05T02:45:13.413Z,16.80
2022-09-05T02:46:05.174Z,16.90
2022-09-05T02:50:09.940Z,16.80
2022-09-05T02:57:27.633Z,16.70
2022-09-05T02:57:38.558Z,16.80
2022-09-05T03:00:13.382Z,16.80
2022-09-05T03:03:34.889Z,16.60
2022-09-05T03:06:54.742Z,16.60
2022-09-05T03:10:11.257Z,16.70
2022-09-05T03:13:37.204Z,16.70
2022-09-05T03:17:09.448Z,16.70
2022-09-05T03:20:19.780Z,16.60
2022-09-05T03:23:51.568Z,16.60
2022-09-05T03:27:29.316Z,16.60
2022-09-05T03:31:08.857Z,16.60
2022-09-05T03:34:49.903Z,16.60
2022-09-05T03:38:27.176Z,16.50
2022-09-05T03:41:54.189Z,16.60
2022-09-05T03:45:36.514Z,16.50
2022-09-05T03:49:10.868Z,16.60
2022-09-05T03:57:16.235Z,16.40
2022-09-05T03:57:20.050Z,16.50
2022-09-05T04:00:25.594Z,16.60
2022-09-05T04:08:08.536Z,16.50
2022-09-05T04:08:27.686Z,16.40
2022-09-05T04:10:51.610Z,16.30
2022-09-05T04:14:04.975Z,16.30
2022-09-05T04:17:24.951Z,16.30
2022-09-05T04:20:49.321Z,16.30
2022-09-05T04:24:21.356Z,16.30
2022-09-05T04:27:26.370Z,16.30
2022-09-05T04:30:43.393Z,16.30
2022-09-05T04:34:18.443Z,16.40
2022-09-05T04:37:54.999Z,16.20
2022-09-05T04:41:03.419Z,16.10
2022-09-05T04:44:12.863Z,16.10
2022-09-05T04:47:50.638Z,16.10
2022-09-05T04:51:12.873Z,16.00
2022-09-05T04:54:34.970Z,16.10
2022-09-05T04:57:55.951Z,16.00
2022-09-05T05:06:02.335Z,16.00
2022-09-05T05:06:10.495Z,16.00
2022-09-05T05:08:28.781Z,16.00
2022-09-05T05:18:04.093Z,16.00
2022-09-05T05:18:06.880Z,16.10
2022-09-05T05:19:16.819Z,16.10
2022-09-05T05:22:19.042Z,16.10
2022-09-05T05:25:21.176Z,16.10
2022-09-05T05:28:41.658Z,16.10
2022-09-05T05:31:51.244Z,16.10
2022-09-05T05:34:56.562Z,16.10
2022-09-05T05:38:16.476Z,16.10
2022-09-05T05:41:33.113Z,16.10
2022-09-05T05:44:37.879Z,16.20
2022-09-05T05:47:45.193Z,16.20
2022-09-05T05:51:06.664Z,16.30
2022-09-05T05:54:29.416Z,16.40
2022-09-05T05:57:43.455Z,16.50
2022-09-05T06:01:30.210Z,16.70
2022-09-05T06:05:06.169Z,16.70
2022-09-05T06:12:09.668Z,16.70
2022-09-05T06:15:02.503Z,16.80
2022-09-05T06:15:37.528Z,16.70
2022-09-05T06:18:59.384Z,16.80
2022-09-05T06:22:31.172Z,16.90
2022-09-05T06:25:51.051Z,17.20
2022-09-05T06:29:15.644Z,17.10
2022-09-05T06:32:49.258Z,17.20
2022-09-05T06:36:16.555Z,17.40
2022-09-05T06:39:27.571Z,17.50
2022-09-05T06:42:47.260Z,17.50
2022-09-05T06:46:48.436Z,17.60
2022-09-05T06:50:24.480Z,17.80
2022-09-05T06:53:36.517Z,18.00
2022-09-05T06:56:41.808Z,18.00
2022-09-05T07:00:21.984Z,18.20
2022-09-05T07:03:42.765Z,18.20
2022-09-05T07:07:01.904Z,18.40
2022-09-05T07:10:35.036Z,18.50
2022-09-05T07:13:48.376Z,18.60
2022-09-05T07:17:11.540Z,18.70
2022-09-05T07:20:22.182Z,18.90
2022-09-05T07:24:06.728Z,19.20
2022-09-05T07:26:58.770Z,19.30
2022-09-05T07:30:02.085Z,19.40
2022-09-05T07:33:04.676Z,19.50
2022-09-05T07:36:14.109Z,19.70
2022-09-05T07:39:29.072Z,19.90
2022-09-05T07:43:08.326Z,20.00
2022-09-05T07:46:17.636Z,19.40
2022-09-05T07:49:23.652Z,20.30
2022-09-05T07:56:51.595Z,20.50
2022-09-05T07:56:59.808Z,20.70
2022-09-05T07:59:28.781Z,21.00
2022-09-05T08:02:31.976Z,21.00
2022-09-05T08:05:56.157Z,21.20
2022-09-05T08:10:06.527Z,21.60
2022-09-05T08:12:44.991Z,21.70
2022-09-05T08:16:10.336Z,21.70
2022-09-05T08:19:46.065Z,21.80
2022-09-05T08:22:54.593Z,22.00
2022-09-05T08:26:32.918Z,22.40
2022-09-05T08:29:51.282Z,22.40
2022-09-05T08:33:23.028Z,22.50
2022-09-05T08:36:34.768Z,22.70
2022-09-05T08:39:36.636Z,22.90
2022-09-05T08:42:49.370Z,23.10
2022-09-05T08:46:40.133Z,23.10
2022-09-05T08:49:51.249Z,23.20
2022-09-05T08:53:26.790Z,23.30
2022-09-05T08:56:58.085Z,23.50
2022-09-05T09:00:19.231Z,23.70
2022-09-05T09:03:26.481Z,24.10
2022-09-05T09:07:29.170Z,24.10
2022-09-05T09:10:43.412Z,24.80
2022-09-05T09:13:54.965Z,24.80
2022-09-05T09:17:23.264Z,24.70
2022-09-05T09:20:33.888Z,24.80
2022-09-05T09:23:46.364Z,25.30
2022-09-05T09:26:59.656Z,25.40
2022-09-05T09:30:05.511Z,25.40
2022-09-05T09:33:11.264Z,25.50
2022-09-05T09:36:50.649Z,25.70
2022-09-05T09:40:10.507Z,26.40
2022-09-05T09:43:27.266Z,26.30
2022-09-05T09:46:55.694Z,26.90
2022-09-05T09:50:38.651Z,27.30
2022-09-05T09:54:07.037Z,27.50
2022-09-05T09:57:32.523Z,27.60
2022-09-05T10:01:20.265Z,28.10
2022-09-05T10:09:28.755Z,28.00
2022-09-05T10:10:51.626Z,28.50
2022-09-05T10:12:09.589Z,28.80
2022-09-05T10:15:31.649Z,28.80
2022-09-05T10:19:04.424Z,29.30
2022-09-05T10:26:16.348Z,29.00
2022-09-05T10:29:42.050Z,29.00
2022-09-05T10:35:07.616Z,29.50
2022-09-05T10:36:33.547Z,29.30
2022-09-05T10:39:46.922Z,29.00
2022-09-05T10:43:02.376Z,29.60
2022-09-05T10:46:50.751Z,29.40
2022-09-05T10:50:19.652Z,28.80
2022-09-05T10:53:24.421Z,29.00
2022-09-05T10:56:31.968Z,28.80
2022-09-05T11:02:24.541Z,28.60
2022-09-05T11:03:40.819Z,28.60
2022-09-05T11:06:45.295Z,28.50
2022-09-05T11:10:10.964Z,28.50
2022-09-05T11:13:16.133Z,28.40
2022-09-05T11:16:41.634Z,28.20
2022-09-05T11:19:59.939Z,28.20
2022-09-05T11:23:09.120Z,28.20
2022-09-05T11:26:42.218Z,28.10
2022-09-05T11:29:53.791Z,28.10
2022-09-05T11:39:00.775Z,28.00
2022-09-05T11:40:09.522Z,28.00
2022-09-05T11:40:49.266Z,28.20
2022-09-05T11:44:29.995Z,28.20
2022-09-05T11:48:15.836Z,27.90
2022-09-05T11:51:38.460Z,28.10
2022-09-05T11:54:48.843Z,28.20
2022-09-05T11:58:00.239Z,28.20
2022-09-05T12:01:42.837Z,28.20
2022-09-05T12:05:49.921Z,28.10
2022-09-05T12:09:25.038Z,28.30
2022-09-05T12:12:41.416Z,28.00
2022-09-05T12:16:00.620Z,27.60
2022-09-05T12:19:19.389Z,27.70
2022-09-05T12:22:34.458Z,27.50
2022-09-05T12:27:39.806Z,27.60
2022-09-05T12:29:33.692Z,27.60
2022-09-05T12:35:59.589Z,27.60
2022-09-05T12:40:56.096Z,27.60
2022-09-05T12:41:35.915Z,27.80
2022-09-05T12:44:36.493Z,27.60
2022-09-05T12:47:17.094Z,27.60
2022-09-05T12:50:32.591Z,27.80
2022-09-05T12:53:59.461Z,27.90
2022-09-05T13:00:27.629Z,27.80
2022-09-05T13:03:13.477Z,27.70
2022-09-05T13:04:48.735Z,27.70
2022-09-05T13:08:04.006Z,27.70
2022-09-05T13:14:52.376Z,27.60
2022-09-05T13:15:06.120Z,27.70
2022-09-05T13:18:13.304Z,27.60
2022-09-05T13:21:25.956Z,27.50
2022-09-05T13:24:38.433Z,27.60
2022-09-05T13:27:46.512Z,27.60
2022-09-05T13:38:00.082Z,27.70
2022-09-05T13:38:12.703Z,27.80
2022-09-05T13:38:47.600Z,27.80
2022-09-05T13:41:42.692Z,28.00
2022-09-05T13:44:46.753Z,28.00
2022-09-05T13:48:15.237Z,28.00
2022-09-05T13:51:28.056Z,28.00
2022-09-05T13:54:59.212Z,28.20
2022-09-05T13:58:21.897Z,28.30
2022-09-05T14:01:44.106Z,28.20
2022-09-05T14:05:19.552Z,28.10
2022-09-05T14:08:36.155Z,28.20
2022-09-05T14:11:46.721Z,28.30
2022-09-05T14:15:25.208Z,28.10
2022-09-05T14:19:12.603Z,28.10
2022-09-05T14:22:34.553Z,28.20
2022-09-05T14:25:52.452Z,28.30
2022-09-05T14:29:02.168Z,28.40
2022-09-05T14:37:54.785Z,28.30
2022-09-05T14:38:01.041Z,28.40
2022-09-05T14:39:49.698Z,28.40
2022-09-05T14:43:30.744Z,28.50
2022-09-05T14:46:35.328Z,28.60
2022-09-05T14:50:04.855Z,28.70
2022-09-05T14:59:55.421Z,28.20
2022-09-05T15:02:41.796Z,28.00
2022-09-05T15:07:31.711Z,28.00
2022-09-05T15:12:15.834Z,28.20
2022-09-05T15:14:07.679Z,28.20
2022-09-05T15:17:09.464Z,28.10
2022-09-05T15:20:25.969Z,28.10
2022-09-05T15:23:31.391Z,28.10
2022-09-05T15:26:35.981Z,28.00
2022-09-05T15:29:37.701Z,27.90
2022-09-05T15:32:41.215Z,27.80
2022-09-05T15:35:44.864Z,27.90
2022-09-05T15:38:54.355Z,27.80
2022-09-05T15:42:33.937Z,27.70
2022-09-05T15:45:37.630Z,27.70
2022-09-05T15:48:40.555Z,27.60
2022-09-05T15:51:50.028Z,27.60
2022-09-05T15:54:58.549Z,27.50
2022-09-05T15:58:04.516Z,27.50
2022-09-05T16:01:30.277Z,27.50
2022-09-05T16:10:26.931Z,27.40
2022-09-05T16:10:41.775Z,27.30
2022-09-05T16:15:58.499Z,27.10
2022-09-05T16:23:28.981Z,27.10
2022-09-05T16:23:31.196Z,27.20
2022-09-05T16:25:35.949Z,27.30
2022-09-05T16:28:46.850Z,27.30
2022-09-05T16:32:02.177Z,27.50
2022-09-05T16:35:09.229Z,27.50
2022-09-05T16:38:27.275Z,27.50
2022-09-05T16:41:48.320Z,27.40
2022-09-05T16:44:56.953Z,27.30
2022-09-05T16:48:24.541Z,27.00
2022-09-05T16:51:36.381Z,27.00
2022-09-05T16:54:53.596Z,27.00
2022-09-05T16:58:14.157Z,26.90
2022-09-05T17:01:25.757Z,26.80
2022-09-05T17:04:30.049Z,26.60
2022-09-05T17:07:55.356Z,26.70
2022-09-05T17:11:12.207Z,26.50
2022-09-05T17:14:25.487Z,26.40
2022-09-05T17:18:22.113Z,26.30
2022-09-05T17:25:12.603Z,26.20
2022-09-05T17:29:23.805Z,26.00
2022-09-05T17:29:28.156Z,26.10
2022-09-05T17:32:18.935Z,26.00
2022-09-05T17:35:59.227Z,25.90
2022-09-05T17:39:44.484Z,25.80
2022-09-05T17:42:57.275Z,25.70
2022-09-05T17:46:17.091Z,25.50
2022-09-05T17:49:45.533Z,25.40
2022-09-05T17:52:56.570Z,25.20
2022-09-05T17:55:58.231Z,25.20
2022-09-05T17:59:18.612Z,25.30
2022-09-05T18:02:20.372Z,25.20
2022-09-05T18:05:57.262Z,25.00
2022-09-05T18:09:08.780Z,24.90
2022-09-05T18:12:34.540Z,24.90
2022-09-05T18:15:47.614Z,24.90
2022-09-05T18:22:25.396Z,24.80
2022-09-05T18:25:33.348Z,24.70
2022-09-05T18:28:50.597Z,24.50
2022-09-05T18:31:53.225Z,24.50
2022-09-05T18:35:20.269Z,24.50
2022-09-05T18:38:51.512Z,24.40
2022-09-05T18:42:26.451Z,24.40
2022-09-05T18:45:35.742Z,24.30
2022-09-05T18:49:44.933Z,24.30
2022-09-05T18:52:24.351Z,24.20
2022-09-05T18:56:10.009Z,24.10
2022-09-05T18:59:09.713Z,24.10
2022-09-05T19:02:51.283Z,23.90
2022-09-05T19:06:36.119Z,23.90
2022-09-05T19:09:29.028Z,23.80
2022-09-05T19:12:42.792Z,23.60
2022-09-05T19:16:42.639Z,23.60
2022-09-05T19:19:24.446Z,23.60
2022-09-05T19:23:08.911Z,23.50
2022-09-05T19:25:56.084Z,23.40
2022-09-05T19:36:56.603Z,23.20
2022-09-05T19:37:02.458Z,23.10
2022-09-05T19:37:05.923Z,23.10
2022-09-05T19:41:27.079Z,23.00
2022-09-05T19:47:34.561Z,22.90
2022-09-05T19:47:36.180Z,23.00
2022-09-05T19:49:34.979Z,22.80
2022-09-05T19:52:39.419Z,22.80
2022-09-05T19:55:41.821Z,22.80
2022-09-05T19:58:43.605Z,22.70
2022-09-05T20:01:47.028Z,22.60
2022-09-05T20:04:53.088Z,22.50
2022-09-05T20:07:57.529Z,22.50
2022-09-05T20:11:06.809Z,22.40
2022-09-05T20:14:22.395Z,22.30
2022-09-05T20:17:34.369Z,22.20
2022-09-05T20:20:36.138Z,22.20
2022-09-05T20:23:45.332Z,22.10
2022-09-05T20:26:47.917Z,22.10
2022-09-05T20:30:02.681Z,22.00
2022-09-05T20:33:20.115Z,22.00
2022-09-05T20:43:14.666Z,21.80
2022-09-05T20:43:23.234Z,21.80
2022-09-05T20:43:37.434Z,21.70
2022-09-05T20:51:31.579Z,21.70
2022-09-05T20:54:13.820Z,21.70
2022-09-05T20:54:17.767Z,21.70
2022-09-05T20:57:15.964Z,22.80
2022-09-05T21:00:21.165Z,21.50
2022-09-05T21:03:27.738Z,21.40
2022-09-05T21:06:33.431Z,21.30
2022-09-05T21:09:58.223Z,21.40
2022-09-05T21:13:02.104Z,21.30
2022-09-05T21:16:27.879Z,21.20
2022-09-05T21:19:34.406Z,21.20
2022-09-05T21:22:43.897Z,21.20
2022-09-05T21:25:58.672Z,21.10
2022-09-05T21:29:10.956Z,21.20
2022-09-05T21:32:14.821Z,21.20
2022-09-05T21:35:34.220Z,21.10
2022-09-05T21:38:41.765Z,21.00
2022-09-05T21:41:47.500Z,20.90
2022-09-05T21:47:34.228Z,20.80
2022-09-05T21:48:15.530Z,20.80
2022-09-05T21:51:23.144Z,20.80
2022-09-05T21:59:16.214Z,20.80
2022-09-05T21:59:22.087Z,20.70
2022-09-05T22:01:09.671Z,21.00
2022-09-05T22:04:11.358Z,20.70
2022-09-05T22:07:16.226Z,20.70
2022-09-05T22:10:22.225Z,20.70
2022-09-05T22:13:30.725Z,20.60
2022-09-05T22:16:33.211Z,20.70
2022-09-05T22:19:37.245Z,20.70
2022-09-05T22:22:40.829Z,20.70
2022-09-05T22:25:43.375Z,20.60
2022-09-05T22:28:50.977Z,20.70
2022-09-05T22:31:54.143Z,20.80
2022-09-05T22:34:55.835Z,20.70
2022-09-05T22:38:12.513Z,20.70
2022-09-05T22:41:16.051Z,20.70
2022-09-05T22:44:18.884Z,20.60
2022-09-05T22:47:20.800Z,20.50
2022-09-05T22:50:23.139Z,20.50
2022-09-05T22:53:24.915Z,20.50
2022-09-05T22:56:37.781Z,20.50
2022-09-05T22:59:39.475Z,20.40
2022-09-05T23:02:41.262Z,20.50
2022-09-05T23:05:43.066Z,20.50
2022-09-05T23:08:44.775Z,20.40
2022-09-05T23:11:46.533Z,20.40
2022-09-05T23:14:48.215Z,20.40
2022-09-05T23:17:54.550Z,20.50
2022-09-05T23:21:00.237Z,20.50
2022-09-05T23:24:02.118Z,20.50
2022-09-05T23:27:03.921Z,20.40
2022-09-05T23:30:08.764Z,20.30
2022-09-05T23:33:10.788Z,20.30
2022-09-05T23:36:16.520Z,20.20
2022-09-05T23:39:18.239Z,20.10
2022-09-05T23:42:19.977Z,20.20
2022-09-05T23:45:23.376Z,20.00
2022-09-05T23:48:25.135Z,20.00
2022-09-05T23:51:26.923Z,20.00
2022-09-05T23:54:28.619Z,20.00
2022-09-05T23:57:30.311Z,20.00
